sensor_id;sensor_type;location;lat;lon;timestamp;P1;durP1;ratioP1;P2;durP2;ratioP2
11398;SDS011;5755;48.116;11.608;2023-02-17T00:02:20;7.95;;;4.40;;
11398;SDS011;5755;48.116;11.608;2023-02-17T00:04:46;5.97;;;4.60;;
11398;SDS011;5755;48.116;11.608;2023-02-17T00:07:15;6.07;;;4.20;;
11398;SDS011;5755;48.116;11.608;2023-02-17T00:09:41;7.43;;;4.50;;
11398;SDS011;5755;48.116;11.608;2023-02-17T00:12:08;7.45;;;4.30;;
11398;SDS011;5755;48.116;11.608;2023-02-17T00:14:37;5.95;;;4.15;;
11398;SDS011;5755;48.116;11.608;2023-02-17T00:17:04;7.72;;;4.20;;
11398;SDS011;5755;48.116;11.608;2023-02-17T00:19:31;7.88;;;4.20;;
11398;SDS011;5755;48.116;11.608;2023-02-17T00:21:58;7.60;;;4.07;;
11398;SDS011;5755;48.116;11.608;2023-02-17T00:24:28;6.22;;;4.05;;
11398;SDS011;5755;48.116;11.608;2023-02-17T00:26:56;7.97;;;4.28;;
11398;SDS011;5755;48.116;11.608;2023-02-17T00:29:23;5.25;;;4.00;;
11398;SDS011;5755;48.116;11.608;2023-02-17T00:31:51;6.78;;;4.22;;
11398;SDS011;5755;48.116;11.608;2023-02-17T00:34:18;7.78;;;4.63;;
11398;SDS011;5755;48.116;11.608;2023-02-17T00:36:45;7.15;;;4.32;;
11398;SDS011;5755;48.116;11.608;2023-02-17T00:39:12;7.03;;;4.57;;
11398;SDS011;5755;48.116;11.608;2023-02-17T00:41:41;8.18;;;4.07;;
11398;SDS011;5755;48.116;11.608;2023-02-17T00:44:09;6.97;;;4.07;;
11398;SDS011;5755;48.116;11.608;2023-02-17T00:46:42;8.07;;;4.40;;
11398;SDS011;5755;48.116;11.608;2023-02-17T00:49:11;6.40;;;4.22;;
11398;SDS011;5755;48.116;11.608;2023-02-17T00:51:40;6.03;;;4.35;;
11398;SDS011;5755;48.116;11.608;2023-02-17T00:54:08;4.90;;;4.05;;
11398;SDS011;5755;48.116;11.608;2023-02-17T00:56:34;5.75;;;4.15;;
11398;SDS011;5755;48.116;11.608;2023-02-17T00:59:03;8.45;;;4.30;;
11398;SDS011;5755;48.116;11.608;2023-02-17T01:01:30;7.50;;;4.57;;
11398;SDS011;5755;48.116;11.608;2023-02-17T01:03:57;4.90;;;3.95;;
11398;SDS011;5755;48.116;11.608;2023-02-17T01:06:25;9.07;;;4.68;;
11398;SDS011;5755;48.116;11.608;2023-02-17T01:08:53;5.65;;;4.18;;
11398;SDS011;5755;48.116;11.608;2023-02-17T01:11:20;5.85;;;4.20;;
11398;SDS011;5755;48.116;11.608;2023-02-17T01:13:48;7.07;;;4.47;;
11398;SDS011;5755;48.116;11.608;2023-02-17T01:16:18;7.13;;;4.47;;
11398;SDS011;5755;48.116;11.608;2023-02-17T01:18:46;6.80;;;4.03;;
11398;SDS011;5755;48.116;11.608;2023-02-17T01:21:16;6.38;;;4.43;;
11398;SDS011;5755;48.116;11.608;2023-02-17T01:23:44;5.57;;;4.18;;
11398;SDS011;5755;48.116;11.608;2023-02-17T01:26:14;6.05;;;4.20;;
11398;SDS011;5755;48.116;11.608;2023-02-17T01:28:42;7.68;;;4.30;;
11398;SDS011;5755;48.116;11.608;2023-02-17T01:31:09;6.90;;;4.35;;
11398;SDS011;5755;48.116;11.608;2023-02-17T01:33:39;6.90;;;4.50;;
11398;SDS011;5755;48.116;11.608;2023-02-17T01:36:06;5.55;;;4.20;;
11398;SDS011;5755;48.116;11.608;2023-02-17T01:38:35;6.55;;;4.28;;
11398;SDS011;5755;48.116;11.608;2023-02-17T01:41:02;10.15;;;4.50;;
11398;SDS011;5755;48.116;11.608;2023-02-17T01:43:30;8.45;;;4.82;;
11398;SDS011;5755;48.116;11.608;2023-02-17T01:45:58;7.05;;;4.50;;
11398;SDS011;5755;48.116;11.608;2023-02-17T01:48:26;7.10;;;4.63;;
11398;SDS011;5755;48.116;11.608;2023-02-17T01:50:58;7.40;;;4.70;;
11398;SDS011;5755;48.116;11.608;2023-02-17T01:53:29;7.35;;;4.90;;
11398;SDS011;5755;48.116;11.608;2023-02-17T01:56:01;10.30;;;4.75;;
11398;SDS011;5755;48.116;11.608;2023-02-17T01:58:28;7.55;;;5.03;;
11398;SDS011;5755;48.116;11.608;2023-02-17T02:00:57;6.68;;;4.60;;
11398;SDS011;5755;48.116;11.608;2023-02-17T02:03:26;10.45;;;5.07;;
11398;SDS011;5755;48.116;11.608;2023-02-17T02:05:56;8.15;;;4.88;;
11398;SDS011;5755;48.116;11.608;2023-02-17T02:08:25;7.75;;;4.85;;
11398;SDS011;5755;48.116;11.608;2023-02-17T02:10:55;7.72;;;5.15;;
11398;SDS011;5755;48.116;11.608;2023-02-17T02:13:22;8.48;;;4.28;;
11398;SDS011;5755;48.116;11.608;2023-02-17T02:15:50;6.80;;;4.47;;
11398;SDS011;5755;48.116;11.608;2023-02-17T02:18:29;7.18;;;4.63;;
11398;SDS011;5755;48.116;11.608;2023-02-17T02:24:12;6.22;;;4.10;;
11398;SDS011;5755;48.116;11.608;2023-02-17T02:26:52;7.43;;;4.30;;
11398;SDS011;5755;48.116;11.608;2023-02-17T02:30:00;6.28;;;4.00;;
11398;SDS011;5755;48.116;11.608;2023-02-17T02:32:49;6.72;;;4.20;;
11398;SDS011;5755;48.116;11.608;2023-02-17T02:35:25;6.85;;;4.05;;
11398;SDS011;5755;48.116;11.608;2023-02-17T02:37:58;6.53;;;4.20;;
11398;SDS011;5755;48.116;11.608;2023-02-17T02:40:30;6.60;;;4.50;;
11398;SDS011;5755;48.116;11.608;2023-02-17T02:43:00;5.82;;;3.97;;
11398;SDS011;5755;48.116;11.608;2023-02-17T02:45:28;6.00;;;4.43;;
11398;SDS011;5755;48.116;11.608;2023-02-17T02:47:58;7.30;;;4.15;;
11398;SDS011;5755;48.116;11.608;2023-02-17T02:50:27;7.35;;;4.32;;
11398;SDS011;5755;48.116;11.608;2023-02-17T02:53:09;7.80;;;4.32;;
11398;SDS011;5755;48.116;11.608;2023-02-17T02:55:49;5.10;;;4.13;;
11398;SDS011;5755;48.116;11.608;2023-02-17T02:58:20;6.28;;;4.32;;
11398;SDS011;5755;48.116;11.608;2023-02-17T03:00:54;8.07;;;3.95;;
11398;SDS011;5755;48.116;11.608;2023-02-17T03:03:28;6.68;;;4.18;;
11398;SDS011;5755;48.116;11.608;2023-02-17T03:06:07;6.10;;;3.88;;
11398;SDS011;5755;48.116;11.608;2023-02-17T03:08:40;5.70;;;3.63;;
11398;SDS011;5755;48.116;11.608;2023-02-17T03:11:12;8.10;;;4.00;;
11398;SDS011;5755;48.116;11.608;2023-02-17T03:13:58;4.82;;;3.97;;
11398;SDS011;5755;48.116;11.608;2023-02-17T03:16:26;5.80;;;4.03;;
11398;SDS011;5755;48.116;11.608;2023-02-17T03:18:54;6.22;;;4.20;;
11398;SDS011;5755;48.116;11.608;2023-02-17T03:21:21;6.45;;;4.00;;
11398;SDS011;5755;48.116;11.608;2023-02-17T03:23:48;5.38;;;3.67;;
11398;SDS011;5755;48.116;11.608;2023-02-17T03:26:15;7.47;;;4.15;;
11398;SDS011;5755;48.116;11.608;2023-02-17T03:28:41;6.57;;;3.97;;
11398;SDS011;5755;48.116;11.608;2023-02-17T03:31:08;8.93;;;3.90;;
11398;SDS011;5755;48.116;11.608;2023-02-17T03:33:35;10.13;;;4.28;;
11398;SDS011;5755;48.116;11.608;2023-02-17T03:36:04;6.55;;;3.90;;
11398;SDS011;5755;48.116;11.608;2023-02-17T03:38:31;4.70;;;3.53;;
11398;SDS011;5755;48.116;11.608;2023-02-17T03:40:58;7.50;;;4.20;;
11398;SDS011;5755;48.116;11.608;2023-02-17T03:43:25;6.47;;;3.83;;
11398;SDS011;5755;48.116;11.608;2023-02-17T03:45:52;5.53;;;4.10;;
11398;SDS011;5755;48.116;11.608;2023-02-17T03:48:19;5.90;;;3.72;;
11398;SDS011;5755;48.116;11.608;2023-02-17T03:50:46;5.10;;;3.67;;
11398;SDS011;5755;48.116;11.608;2023-02-17T03:53:14;6.00;;;3.90;;
11398;SDS011;5755;48.116;11.608;2023-02-17T03:55:40;5.43;;;4.05;;
11398;SDS011;5755;48.116;11.608;2023-02-17T03:58:07;5.43;;;3.80;;
11398;SDS011;5755;48.116;11.608;2023-02-17T04:00:34;4.38;;;3.50;;
11398;SDS011;5755;48.116;11.608;2023-02-17T04:03:01;6.30;;;3.40;;
11398;SDS011;5755;48.116;11.608;2023-02-17T04:05:28;4.70;;;3.28;;
11398;SDS011;5755;48.116;11.608;2023-02-17T04:07:54;7.32;;;3.55;;
11398;SDS011;5755;48.116;11.608;2023-02-17T04:10:23;6.93;;;3.70;;
11398;SDS011;5755;48.116;11.608;2023-02-17T04:12:50;5.97;;;3.42;;
11398;SDS011;5755;48.116;11.608;2023-02-17T04:15:16;5.00;;;3.17;;
11398;SDS011;5755;48.116;11.608;2023-02-17T04:17:43;5.38;;;3.30;;
11398;SDS011;5755;48.116;11.608;2023-02-17T04:20:10;5.18;;;3.00;;
11398;SDS011;5755;48.116;11.608;2023-02-17T04:22:38;6.40;;;3.10;;
11398;SDS011;5755;48.116;11.608;2023-02-17T04:25:05;4.85;;;3.10;;
11398;SDS011;5755;48.116;11.608;2023-02-17T04:27:33;5.63;;;3.38;;
11398;SDS011;5755;48.116;11.608;2023-02-17T04:30:00;4.43;;;3.00;;
11398;SDS011;5755;48.116;11.608;2023-02-17T04:32:27;4.45;;;3.08;;
11398;SDS011;5755;48.116;11.608;2023-02-17T04:34:54;5.53;;;3.30;;
11398;SDS011;5755;48.116;11.608;2023-02-17T04:37:21;5.82;;;3.47;;
11398;SDS011;5755;48.116;11.608;2023-02-17T04:39:48;4.13;;;3.25;;
11398;SDS011;5755;48.116;11.608;2023-02-17T04:42:15;4.63;;;2.70;;
11398;SDS011;5755;48.116;11.608;2023-02-17T04:44:43;5.72;;;3.67;;
11398;SDS011;5755;48.116;11.608;2023-02-17T04:47:10;3.85;;;3.03;;
11398;SDS011;5755;48.116;11.608;2023-02-17T04:49:37;3.88;;;2.83;;
11398;SDS011;5755;48.116;11.608;2023-02-17T04:52:04;6.85;;;3.22;;
11398;SDS011;5755;48.116;11.608;2023-02-17T04:54:31;3.83;;;2.80;;
11398;SDS011;5755;48.116;11.608;2023-02-17T04:56:59;4.32;;;2.80;;
11398;SDS011;5755;48.116;11.608;2023-02-17T04:59:26;4.32;;;3.17;;
11398;SDS011;5755;48.116;11.608;2023-02-17T05:01:54;7.80;;;2.72;;
11398;SDS011;5755;48.116;11.608;2023-02-17T05:04:20;4.68;;;3.03;;
11398;SDS011;5755;48.116;11.608;2023-02-17T05:06:48;6.03;;;2.90;;
11398;SDS011;5755;48.116;11.608;2023-02-17T05:09:14;6.85;;;3.10;;
11398;SDS011;5755;48.116;11.608;2023-02-17T05:11:41;4.75;;;2.97;;
11398;SDS011;5755;48.116;11.608;2023-02-17T05:14:08;5.28;;;3.22;;
11398;SDS011;5755;48.116;11.608;2023-02-17T05:16:35;5.53;;;3.28;;
11398;SDS011;5755;48.116;11.608;2023-02-17T05:19:03;5.15;;;2.72;;
11398;SDS011;5755;48.116;11.608;2023-02-17T05:21:30;3.80;;;3.13;;
11398;SDS011;5755;48.116;11.608;2023-02-17T05:23:57;6.35;;;3.10;;
11398;SDS011;5755;48.116;11.608;2023-02-17T05:26:24;4.63;;;2.95;;
11398;SDS011;5755;48.116;11.608;2023-02-17T05:28:51;4.45;;;3.00;;
11398;SDS011;5755;48.116;11.608;2023-02-17T05:31:18;5.63;;;3.15;;
11398;SDS011;5755;48.116;11.608;2023-02-17T05:33:45;4.47;;;3.03;;
11398;SDS011;5755;48.116;11.608;2023-02-17T05:36:13;8.43;;;3.47;;
11398;SDS011;5755;48.116;11.608;2023-02-17T05:38:40;6.95;;;2.92;;
11398;SDS011;5755;48.116;11.608;2023-02-17T05:41:10;5.88;;;2.80;;
11398;SDS011;5755;48.116;11.608;2023-02-17T05:43:36;6.53;;;3.08;;
11398;SDS011;5755;48.116;11.608;2023-02-17T05:46:03;5.63;;;3.15;;
11398;SDS011;5755;48.116;11.608;2023-02-17T05:48:31;6.55;;;2.70;;
11398;SDS011;5755;48.116;11.608;2023-02-17T05:50:59;6.75;;;2.80;;
11398;SDS011;5755;48.116;11.608;2023-02-17T05:53:27;5.07;;;2.92;;
11398;SDS011;5755;48.116;11.608;2023-02-17T05:55:54;4.03;;;2.92;;
11398;SDS011;5755;48.116;11.608;2023-02-17T05:58:21;3.83;;;2.60;;
11398;SDS011;5755;48.116;11.608;2023-02-17T06:00:48;5.85;;;3.15;;
11398;SDS011;5755;48.116;11.608;2023-02-17T06:03:15;6.65;;;2.97;;
11398;SDS011;5755;48.116;11.608;2023-02-17T06:05:43;4.20;;;3.10;;
11398;SDS011;5755;48.116;11.608;2023-02-17T06:08:10;9.40;;;2.72;;
11398;SDS011;5755;48.116;11.608;2023-02-17T06:10:39;5.85;;;2.97;;
11398;SDS011;5755;48.116;11.608;2023-02-17T06:13:10;4.07;;;2.70;;
11398;SDS011;5755;48.116;11.608;2023-02-17T06:15:37;6.25;;;2.80;;
11398;SDS011;5755;48.116;11.608;2023-02-17T06:18:04;5.72;;;2.90;;
11398;SDS011;5755;48.116;11.608;2023-02-17T06:20:31;7.72;;;2.80;;
11398;SDS011;5755;48.116;11.608;2023-02-17T06:22:58;7.80;;;3.00;;
11398;SDS011;5755;48.116;11.608;2023-02-17T06:25:24;3.60;;;2.80;;
11398;SDS011;5755;48.116;11.608;2023-02-17T06:27:53;6.28;;;2.92;;
11398;SDS011;5755;48.116;11.608;2023-02-17T06:30:20;5.70;;;2.80;;
11398;SDS011;5755;48.116;11.608;2023-02-17T06:32:48;5.47;;;2.88;;
11398;SDS011;5755;48.116;11.608;2023-02-17T06:35:16;4.78;;;2.75;;
11398;SDS011;5755;48.116;11.608;2023-02-17T06:37:42;4.57;;;2.80;;
11398;SDS011;5755;48.116;11.608;2023-02-17T06:40:10;4.38;;;2.92;;
11398;SDS011;5755;48.116;11.608;2023-02-17T06:42:37;5.05;;;2.70;;
11398;SDS011;5755;48.116;11.608;2023-02-17T06:45:06;4.78;;;3.13;;
11398;SDS011;5755;48.116;11.608;2023-02-17T06:47:34;5.40;;;2.67;;
11398;SDS011;5755;48.116;11.608;2023-02-17T06:50:01;6.28;;;2.70;;
11398;SDS011;5755;48.116;11.608;2023-02-17T06:52:28;6.40;;;2.42;;
11398;SDS011;5755;48.116;11.608;2023-02-17T06:54:55;12.27;;;2.97;;
11398;SDS011;5755;48.116;11.608;2023-02-17T06:57:21;6.32;;;2.90;;
11398;SDS011;5755;48.116;11.608;2023-02-17T06:59:48;6.63;;;2.70;;
11398;SDS011;5755;48.116;11.608;2023-02-17T07:02:17;8.27;;;2.80;;
11398;SDS011;5755;48.116;11.608;2023-02-17T07:04:44;8.38;;;2.50;;
11398;SDS011;5755;48.116;11.608;2023-02-17T07:07:11;8.35;;;3.13;;
11398;SDS011;5755;48.116;11.608;2023-02-17T07:09:37;7.35;;;2.60;;
11398;SDS011;5755;48.116;11.608;2023-02-17T07:12:05;10.13;;;3.05;;
11398;SDS011;5755;48.116;11.608;2023-02-17T07:14:33;9.60;;;2.53;;
11398;SDS011;5755;48.116;11.608;2023-02-17T07:17:00;6.28;;;2.33;;
11398;SDS011;5755;48.116;11.608;2023-02-17T07:19:28;6.88;;;2.85;;
11398;SDS011;5755;48.116;11.608;2023-02-17T07:21:56;8.20;;;2.67;;
11398;SDS011;5755;48.116;11.608;2023-02-17T07:24:22;8.55;;;2.95;;
11398;SDS011;5755;48.116;11.608;2023-02-17T07:26:49;9.57;;;2.72;;
11398;SDS011;5755;48.116;11.608;2023-02-17T07:29:17;7.97;;;2.90;;
11398;SDS011;5755;48.116;11.608;2023-02-17T07:31:44;9.18;;;2.78;;
11398;SDS011;5755;48.116;11.608;2023-02-17T07:34:11;10.52;;;2.65;;
11398;SDS011;5755;48.116;11.608;2023-02-17T07:36:41;7.38;;;2.90;;
11398;SDS011;5755;48.116;11.608;2023-02-17T07:39:08;6.47;;;2.70;;
11398;SDS011;5755;48.116;11.608;2023-02-17T07:41:35;8.68;;;2.72;;
11398;SDS011;5755;48.116;11.608;2023-02-17T07:44:02;10.70;;;3.15;;
11398;SDS011;5755;48.116;11.608;2023-02-17T07:46:29;6.88;;;2.40;;
11398;SDS011;5755;48.116;11.608;2023-02-17T07:48:56;13.32;;;2.63;;
11398;SDS011;5755;48.116;11.608;2023-02-17T07:51:23;7.90;;;2.90;;
11398;SDS011;5755;48.116;11.608;2023-02-17T07:53:52;7.25;;;3.00;;
11398;SDS011;5755;48.116;11.608;2023-02-17T07:56:19;6.22;;;2.80;;
11398;SDS011;5755;48.116;11.608;2023-02-17T07:58:47;12.63;;;3.08;;
11398;SDS011;5755;48.116;11.608;2023-02-17T08:01:15;8.75;;;3.03;;
11398;SDS011;5755;48.116;11.608;2023-02-17T08:03:43;13.18;;;3.20;;
11398;SDS011;5755;48.116;11.608;2023-02-17T08:06:11;5.65;;;2.30;;
11398;SDS011;5755;48.116;11.608;2023-02-17T08:08:40;8.23;;;2.90;;
11398;SDS011;5755;48.116;11.608;2023-02-17T08:11:26;8.68;;;2.45;;
11398;SDS011;5755;48.116;11.608;2023-02-17T08:14:11;8.13;;;2.50;;
11398;SDS011;5755;48.116;11.608;2023-02-17T08:16:38;6.70;;;3.17;;
11398;SDS011;5755;48.116;11.608;2023-02-17T08:19:06;5.82;;;2.47;;
11398;SDS011;5755;48.116;11.608;2023-02-17T08:21:33;10.57;;;2.70;;
11398;SDS011;5755;48.116;11.608;2023-02-17T08:24:00;10.32;;;2.40;;
11398;SDS011;5755;48.116;11.608;2023-02-17T08:26:28;7.50;;;2.60;;
11398;SDS011;5755;48.116;11.608;2023-02-17T08:28:56;8.27;;;2.60;;
11398;SDS011;5755;48.116;11.608;2023-02-17T08:31:26;11.38;;;2.67;;
11398;SDS011;5755;48.116;11.608;2023-02-17T08:33:55;6.90;;;2.47;;
11398;SDS011;5755;48.116;11.608;2023-02-17T08:36:23;10.57;;;2.75;;
11398;SDS011;5755;48.116;11.608;2023-02-17T08:38:50;9.35;;;3.03;;
11398;SDS011;5755;48.116;11.608;2023-02-17T08:41:18;8.70;;;2.70;;
11398;SDS011;5755;48.116;11.608;2023-02-17T08:43:50;10.63;;;2.90;;
11398;SDS011;5755;48.116;11.608;2023-02-17T08:46:18;10.65;;;2.78;;
11398;SDS011;5755;48.116;11.608;2023-02-17T08:51:15;8.40;;;3.15;;
11398;SDS011;5755;48.116;11.608;2023-02-17T08:53:53;12.77;;;3.80;;
11398;SDS011;5755;48.116;11.608;2023-02-17T08:56:21;6.82;;;2.85;;
11398;SDS011;5755;48.116;11.608;2023-02-17T09:19:36;10.20;;;3.25;;
11398;SDS011;5755;48.116;11.608;2023-02-17T09:27:15;8.45;;;3.00;;
11398;SDS011;5755;48.116;11.608;2023-02-17T09:32:10;6.72;;;2.95;;
11398;SDS011;5755;48.116;11.608;2023-02-17T09:34:38;7.47;;;3.20;;
11398;SDS011;5755;48.116;11.608;2023-02-17T09:37:09;6.35;;;3.08;;
11398;SDS011;5755;48.116;11.608;2023-02-17T09:42:14;6.75;;;3.42;;
11398;SDS011;5755;48.116;11.608;2023-02-17T09:47:20;7.22;;;3.13;;
11398;SDS011;5755;48.116;11.608;2023-02-17T09:49:53;8.18;;;3.28;;
11398;SDS011;5755;48.116;11.608;2023-02-17T09:52:22;8.70;;;2.83;;
11398;SDS011;5755;48.116;11.608;2023-02-17T09:54:58;7.45;;;3.13;;
11398;SDS011;5755;48.116;11.608;2023-02-17T09:57:31;7.53;;;3.20;;
11398;SDS011;5755;48.116;11.608;2023-02-17T10:00:03;8.25;;;3.10;;
11398;SDS011;5755;48.116;11.608;2023-02-17T10:02:35;9.98;;;2.67;;
11398;SDS011;5755;48.116;11.608;2023-02-17T10:05:09;6.43;;;2.78;;
11398;SDS011;5755;48.116;11.608;2023-02-17T10:07:40;8.75;;;3.25;;
11398;SDS011;5755;48.116;11.608;2023-02-17T10:10:13;8.60;;;3.00;;
11398;SDS011;5755;48.116;11.608;2023-02-17T10:12:44;5.63;;;2.83;;
11398;SDS011;5755;48.116;11.608;2023-02-17T10:15:15;8.48;;;3.30;;
11398;SDS011;5755;48.116;11.608;2023-02-17T10:17:45;10.10;;;2.80;;
11398;SDS011;5755;48.116;11.608;2023-02-17T10:20:21;9.68;;;2.90;;
11398;SDS011;5755;48.116;11.608;2023-02-17T10:22:51;8.07;;;3.35;;
11398;SDS011;5755;48.116;11.608;2023-02-17T10:25:23;9.68;;;2.95;;
11398;SDS011;5755;48.116;11.608;2023-02-17T10:28:01;10.38;;;3.30;;
11398;SDS011;5755;48.116;11.608;2023-02-17T10:30:36;7.05;;;2.58;;
11398;SDS011;5755;48.116;11.608;2023-02-17T10:33:11;6.15;;;3.15;;
11398;SDS011;5755;48.116;11.608;2023-02-17T10:36:00;8.40;;;3.05;;
11398;SDS011;5755;48.116;11.608;2023-02-17T10:38:39;9.77;;;2.72;;
11398;SDS011;5755;48.116;11.608;2023-02-17T10:41:15;5.28;;;2.65;;
11398;SDS011;5755;48.116;11.608;2023-02-17T10:43:45;5.70;;;2.60;;
11398;SDS011;5755;48.116;11.608;2023-02-17T10:46:14;3.38;;;2.38;;
11398;SDS011;5755;48.116;11.608;2023-02-17T10:48:44;10.57;;;2.70;;
11398;SDS011;5755;48.116;11.608;2023-02-17T10:51:19;6.25;;;2.65;;
11398;SDS011;5755;48.116;11.608;2023-02-17T10:58:57;6.20;;;3.00;;
11398;SDS011;5755;48.116;11.608;2023-02-17T11:01:30;4.93;;;2.58;;
11398;SDS011;5755;48.116;11.608;2023-02-17T11:16:57;10.77;;;2.78;;
11398;SDS011;5755;48.116;11.608;2023-02-17T11:19:27;7.35;;;3.28;;
11398;SDS011;5755;48.116;11.608;2023-02-17T11:53:19;6.38;;;2.20;;
11398;SDS011;5755;48.116;11.608;2023-02-17T11:56:08;4.13;;;2.20;;
11398;SDS011;5755;48.116;11.608;2023-02-17T11:58:55;5.50;;;2.53;;
11398;SDS011;5755;48.116;11.608;2023-02-17T12:01:43;5.95;;;2.22;;
11398;SDS011;5755;48.116;11.608;2023-02-17T12:04:24;3.63;;;2.20;;
11398;SDS011;5755;48.116;11.608;2023-02-17T12:07:05;6.65;;;2.50;;
11398;SDS011;5755;48.116;11.608;2023-02-17T12:09:47;6.10;;;2.28;;
11398;SDS011;5755;48.116;11.608;2023-02-17T12:12:22;7.10;;;2.50;;
11398;SDS011;5755;48.116;11.608;2023-02-17T12:15:02;9.70;;;2.42;;
11398;SDS011;5755;48.116;11.608;2023-02-17T12:17:55;6.72;;;2.50;;
11398;SDS011;5755;48.116;11.608;2023-02-17T12:20:40;8.38;;;2.60;;
11398;SDS011;5755;48.116;11.608;2023-02-17T12:23:29;6.85;;;2.30;;
11398;SDS011;5755;48.116;11.608;2023-02-17T12:26:13;5.55;;;2.35;;
11398;SDS011;5755;48.116;11.608;2023-02-17T12:28:55;8.10;;;2.33;;
11398;SDS011;5755;48.116;11.608;2023-02-17T12:31:37;4.10;;;2.30;;
11398;SDS011;5755;48.116;11.608;2023-02-17T12:34:35;4.60;;;2.30;;
11398;SDS011;5755;48.116;11.608;2023-02-17T12:37:11;4.15;;;1.92;;
11398;SDS011;5755;48.116;11.608;2023-02-17T12:39:46;5.50;;;2.15;;
11398;SDS011;5755;48.116;11.608;2023-02-17T12:42:19;6.85;;;2.25;;
11398;SDS011;5755;48.116;11.608;2023-02-17T12:44:58;5.55;;;2.50;;
11398;SDS011;5755;48.116;11.608;2023-02-17T12:47:36;3.63;;;2.33;;
11398;SDS011;5755;48.116;11.608;2023-02-17T12:50:30;6.32;;;2.15;;
11398;SDS011;5755;48.116;11.608;2023-02-17T12:53:21;4.13;;;2.00;;
11398;SDS011;5755;48.116;11.608;2023-02-17T12:59:32;3.42;;;2.20;;
11398;SDS011;5755;48.116;11.608;2023-02-17T13:02:15;4.35;;;2.15;;
11398;SDS011;5755;48.116;11.608;2023-02-17T13:04:43;4.35;;;2.10;;
11398;SDS011;5755;48.116;11.608;2023-02-17T13:07:17;8.73;;;2.20;;
11398;SDS011;5755;48.116;11.608;2023-02-17T13:10:16;5.53;;;2.22;;
11398;SDS011;5755;48.116;11.608;2023-02-17T13:12:54;6.65;;;2.15;;
11398;SDS011;5755;48.116;11.608;2023-02-17T13:15:25;5.43;;;2.20;;
11398;SDS011;5755;48.116;11.608;2023-02-17T13:17:55;7.88;;;2.42;;
11398;SDS011;5755;48.116;11.608;2023-02-17T13:20:56;5.70;;;2.03;;
11398;SDS011;5755;48.116;11.608;2023-02-17T13:23:26;3.92;;;2.10;;
11398;SDS011;5755;48.116;11.608;2023-02-17T13:26:12;4.03;;;2.10;;
11398;SDS011;5755;48.116;11.608;2023-02-17T13:28:49;9.70;;;2.50;;
11398;SDS011;5755;48.116;11.608;2023-02-17T13:31:59;8.38;;;2.22;;
11398;SDS011;5755;48.116;11.608;2023-02-17T13:34:32;4.72;;;2.75;;
11398;SDS011;5755;48.116;11.608;2023-02-17T13:37:02;3.53;;;2.55;;
11398;SDS011;5755;48.116;11.608;2023-02-17T13:39:42;6.25;;;2.30;;
11398;SDS011;5755;48.116;11.608;2023-02-17T13:44:58;3.92;;;2.20;;
11398;SDS011;5755;48.116;11.608;2023-02-17T13:47:28;8.10;;;2.70;;
11398;SDS011;5755;48.116;11.608;2023-02-17T13:49:59;6.20;;;2.42;;
11398;SDS011;5755;48.116;11.608;2023-02-17T13:52:27;6.20;;;2.42;;
11398;SDS011;5755;48.116;11.608;2023-02-17T13:54:56;4.50;;;2.42;;
11398;SDS011;5755;48.116;11.608;2023-02-17T13:57:25;4.88;;;2.40;;
11398;SDS011;5755;48.116;11.608;2023-02-17T14:00:07;4.60;;;2.15;;
11398;SDS011;5755;48.116;11.608;2023-02-17T14:02:37;8.73;;;2.42;;
11398;SDS011;5755;48.116;11.608;2023-02-17T14:05:26;3.95;;;2.38;;
11398;SDS011;5755;48.116;11.608;2023-02-17T14:08:02;4.18;;;2.08;;
11398;SDS011;5755;48.116;11.608;2023-02-17T14:10:31;4.55;;;2.33;;
11398;SDS011;5755;48.116;11.608;2023-02-17T14:12:59;7.97;;;2.30;;
11398;SDS011;5755;48.116;11.608;2023-02-17T14:15:27;10.30;;;2.28;;
11398;SDS011;5755;48.116;11.608;2023-02-17T14:17:56;4.57;;;2.22;;
11398;SDS011;5755;48.116;11.608;2023-02-17T14:20:24;3.17;;;2.30;;
11398;SDS011;5755;48.116;11.608;2023-02-17T14:22:59;4.68;;;2.17;;
11398;SDS011;5755;48.116;11.608;2023-02-17T14:25:48;5.93;;;2.30;;
11398;SDS011;5755;48.116;11.608;2023-02-17T14:28:17;2.85;;;1.90;;
11398;SDS011;5755;48.116;11.608;2023-02-17T14:30:45;5.20;;;2.17;;
11398;SDS011;5755;48.116;11.608;2023-02-17T14:33:19;4.95;;;2.15;;
11398;SDS011;5755;48.116;11.608;2023-02-17T14:35:52;3.50;;;1.75;;
11398;SDS011;5755;48.116;11.608;2023-02-17T14:38:21;4.10;;;1.80;;
11398;SDS011;5755;48.116;11.608;2023-02-17T14:40:50;4.07;;;1.75;;
11398;SDS011;5755;48.116;11.608;2023-02-17T14:43:20;4.03;;;2.05;;
11398;SDS011;5755;48.116;11.608;2023-02-17T14:45:47;5.38;;;2.03;;
11398;SDS011;5755;48.116;11.608;2023-02-17T14:48:14;4.15;;;1.90;;
11398;SDS011;5755;48.116;11.608;2023-02-17T14:50:54;4.50;;;2.00;;
11398;SDS011;5755;48.116;11.608;2023-02-17T14:53:24;4.45;;;2.05;;
11398;SDS011;5755;48.116;11.608;2023-02-17T14:55:55;2.80;;;2.00;;
11398;SDS011;5755;48.116;11.608;2023-02-17T14:58:25;4.10;;;1.70;;
11398;SDS011;5755;48.116;11.608;2023-02-17T15:00:56;2.50;;;1.70;;
11398;SDS011;5755;48.116;11.608;2023-02-17T15:03:25;3.38;;;1.80;;
11398;SDS011;5755;48.116;11.608;2023-02-17T15:05:55;9.45;;;2.45;;
11398;SDS011;5755;48.116;11.608;2023-02-17T15:08:36;3.25;;;1.80;;
11398;SDS011;5755;48.116;11.608;2023-02-17T15:11:04;6.22;;;2.13;;
11398;SDS011;5755;48.116;11.608;2023-02-17T15:13:31;4.25;;;2.28;;
11398;SDS011;5755;48.116;11.608;2023-02-17T15:16:02;3.42;;;1.90;;
11398;SDS011;5755;48.116;11.608;2023-02-17T15:18:32;4.07;;;2.00;;
11398;SDS011;5755;48.116;11.608;2023-02-17T15:20:59;4.75;;;1.90;;
11398;SDS011;5755;48.116;11.608;2023-02-17T15:23:27;4.63;;;2.13;;
11398;SDS011;5755;48.116;11.608;2023-02-17T15:25:57;3.13;;;1.75;;
11398;SDS011;5755;48.116;11.608;2023-02-17T15:28:25;4.72;;;1.92;;
11398;SDS011;5755;48.116;11.608;2023-02-17T15:30:53;5.00;;;2.20;;
11398;SDS011;5755;48.116;11.608;2023-02-17T15:33:22;3.05;;;1.90;;
11398;SDS011;5755;48.116;11.608;2023-02-17T15:35:51;3.67;;;1.85;;
11398;SDS011;5755;48.116;11.608;2023-02-17T15:38:19;2.58;;;1.73;;
11398;SDS011;5755;48.116;11.608;2023-02-17T15:40:47;2.75;;;2.08;;
11398;SDS011;5755;48.116;11.608;2023-02-17T15:43:15;3.13;;;2.00;;
11398;SDS011;5755;48.116;11.608;2023-02-17T15:45:45;2.53;;;1.90;;
11398;SDS011;5755;48.116;11.608;2023-02-17T15:48:13;6.18;;;1.95;;
11398;SDS011;5755;48.116;11.608;2023-02-17T15:50:46;4.35;;;2.40;;
11398;SDS011;5755;48.116;11.608;2023-02-17T15:53:15;4.65;;;1.75;;
11398;SDS011;5755;48.116;11.608;2023-02-17T15:55:42;2.92;;;1.88;;
11398;SDS011;5755;48.116;11.608;2023-02-17T15:58:11;3.85;;;1.73;;
11398;SDS011;5755;48.116;11.608;2023-02-17T16:00:41;4.00;;;2.13;;
11398;SDS011;5755;48.116;11.608;2023-02-17T16:03:10;2.05;;;1.80;;
11398;SDS011;5755;48.116;11.608;2023-02-17T16:05:38;5.25;;;1.90;;
11398;SDS011;5755;48.116;11.608;2023-02-17T16:08:21;3.03;;;1.73;;
11398;SDS011;5755;48.116;11.608;2023-02-17T16:10:47;5.43;;;1.98;;
11398;SDS011;5755;48.116;11.608;2023-02-17T16:13:19;5.28;;;1.60;;
11398;SDS011;5755;48.116;11.608;2023-02-17T16:15:48;3.38;;;1.63;;
11398;SDS011;5755;48.116;11.608;2023-02-17T16:18:18;3.65;;;1.90;;
11398;SDS011;5755;48.116;11.608;2023-02-17T16:20:47;2.42;;;1.85;;
11398;SDS011;5755;48.116;11.608;2023-02-17T16:23:15;3.08;;;1.63;;
11398;SDS011;5755;48.116;11.608;2023-02-17T16:25:44;6.93;;;1.90;;
11398;SDS011;5755;48.116;11.608;2023-02-17T16:28:14;3.13;;;1.90;;
11398;SDS011;5755;48.116;11.608;2023-02-17T16:30:43;4.72;;;2.05;;
11398;SDS011;5755;48.116;11.608;2023-02-17T16:33:13;2.63;;;1.70;;
11398;SDS011;5755;48.116;11.608;2023-02-17T16:35:40;4.32;;;1.73;;
11398;SDS011;5755;48.116;11.608;2023-02-17T16:38:16;3.38;;;1.65;;
11398;SDS011;5755;48.116;11.608;2023-02-17T17:01:33;2.47;;;1.73;;
11398;SDS011;5755;48.116;11.608;2023-02-17T17:04:40;3.00;;;1.90;;
11398;SDS011;5755;48.116;11.608;2023-02-17T17:07:23;4.22;;;2.00;;